Time;durP1;ratioP1;P1;durP2;ratioP2;P2;SDS_P1;SDS_P2;PMS_P1;PMS_P2;Temp;Humidity;BMP_temperature;BMP_pressure;BME280_temperature;BME280_humidity;BME280_pressure;Samples;Min_cycle;Max_cycle;Signal;HPM_P1;HPM_P2
2022/03/10 00:00:20;;;;;;;19.02;14.02;;;;;;;;;;4994159;28;20050;-68
2022/03/10 00:02:48;;;;;;;20.65;16.35;;;;;;;;;;4978134;28;20434;-68
2022/03/10 00:05:18;;;;;;;23.55;15.65;;;;;;;;;;4976985;28;20054;-68
2022/03/10 00:07:46;;;;;;;22.55;17.58;;;;;;;;;;4994356;28;20050;-68
2022/03/10 00:10:14;;;;;;;21.83;16.85;;;;;;;;;;4994375;28;20141;-67
2022/03/10 00:12:53;;;;;;;20.77;15.00;;;;;;;;;;4993662;28;20046;-68
2022/03/10 00:15:22;;;;;;;24.48;15.52;;;;;;;;;;4994767;28;20054;-68
2022/03/10 00:17:50;;;;;;;24.33;16.40;;;;;;;;;;4993458;28;20082;-68
2022/03/10 00:20:17;;;;;;;22.58;16.58;;;;;;;;;;4998548;28;20406;-68
2022/03/10 00:22:47;;;;;;;26.95;16.40;;;;;;;;;;4979092;28;20061;-68
2022/03/10 00:25:16;;;;;;;23.25;15.07;;;;;;;;;;4990298;28;20449;-68
2022/03/10 00:27:45;;;;;;;21.75;15.35;;;;;;;;;;4984497;28;20057;-68
2022/03/10 00:30:12;;;;;;;21.98;14.48;;;;;;;;;;4983882;28;20047;-68
2022/03/10 00:32:51;;;;;;;27.33;15.57;;;;;;;;;;4981932;28;20057;-69
2022/03/10 00:35:21;;;;;;;27.02;16.25;;;;;;;;;;4984064;28;20085;-68
2022/03/10 00:37:56;;;;;;;25.60;17.25;;;;;;;;;;4988513;28;20057;-69
2022/03/10 00:40:24;;;;;;;27.42;16.48;;;;;;;;;;4982079;28;20134;-68
2022/03/10 00:42:52;;;;;;;23.15;15.77;;;;;;;;;;4980196;28;20101;-68
2022/03/10 00:45:20;;;;;;;25.98;17.42;;;;;;;;;;4980306;28;20055;-68
2022/03/10 00:47:52;;;;;;;23.95;16.40;;;;;;;;;;4977718;28;20396;-68
2022/03/10 00:50:23;;;;;;;23.90;15.85;;;;;;;;;;4976994;28;20038;-68
2022/03/10 00:52:51;;;;;;;23.13;16.58;;;;;;;;;;4975673;28;20043;-68
2022/03/10 00:55:19;;;;;;;23.45;16.10;;;;;;;;;;4989574;28;20039;-68
2022/03/10 00:57:47;;;;;;;19.77;15.35;;;;;;;;;;4988078;28;20046;-68
2022/03/10 01:00:17;;;;;;;21.20;15.73;;;;;;;;;;4985738;28;20077;-68
2022/03/10 01:02:45;;;;;;;23.67;16.33;;;;;;;;;;4995801;28;20145;-68
2022/03/10 01:05:13;;;;;;;19.45;15.40;;;;;;;;;;4997099;28;20056;-68
2022/03/10 01:07:40;;;;;;;21.73;16.17;;;;;;;;;;4997232;28;20081;-69
2022/03/10 01:10:09;;;;;;;23.25;17.83;;;;;;;;;;4997296;28;20050;-68
2022/03/10 01:12:41;;;;;;;19.95;14.93;;;;;;;;;;4997574;28;20061;-69
2022/03/10 01:15:10;;;;;;;20.70;15.35;;;;;;;;;;4997255;28;20050;-68
2022/03/10 01:17:39;;;;;;;20.20;15.88;;;;;;;;;;4997594;28;20051;-68
2022/03/10 01:20:08;;;;;;;20.80;15.13;;;;;;;;;;4986060;28;20058;-68
2022/03/10 01:22:36;;;;;;;22.85;15.73;;;;;;;;;;4993878;28;20054;-68
2022/03/10 01:25:04;;;;;;;18.00;15.45;;;;;;;;;;4980283;28;20061;-68
2022/03/10 01:27:32;;;;;;;20.80;15.25;;;;;;;;;;4988916;28;20061;-68
2022/03/10 01:30:00;;;;;;;25.48;17.00;;;;;;;;;;4996956;28;20413;-69
2022/03/10 01:32:28;;;;;;;21.60;16.58;;;;;;;;;;4996528;28;20069;-68
2022/03/10 01:34:55;;;;;;;20.33;14.60;;;;;;;;;;4996711;28;20050;-68
2022/03/10 01:37:23;;;;;;;22.98;15.60;;;;;;;;;;4995939;28;20054;-69
2022/03/10 01:39:51;;;;;;;19.10;14.05;;;;;;;;;;4995554;28;20142;-69
2022/03/10 01:42:19;;;;;;;21.33;15.63;;;;;;;;;;4996145;28;20159;-69
2022/03/10 01:44:54;;;;;;;19.65;12.70;;;;;;;;;;4997019;28;20065;-69
2022/03/10 01:47:22;;;;;;;21.88;13.73;;;;;;;;;;4997418;28;20060;-68
2022/03/10 01:49:50;;;;;;;20.67;14.35;;;;;;;;;;4994244;28;20105;-69
2022/03/10 01:52:19;;;;;;;18.08;13.98;;;;;;;;;;4997251;28;20054;-68
2022/03/10 01:54:47;;;;;;;19.95;15.05;;;;;;;;;;4995061;28;20074;-69
2022/03/10 01:57:16;;;;;;;21.55;14.02;;;;;;;;;;4996681;28;20112;-68
2022/03/10 01:59:43;;;;;;;21.13;14.48;;;;;;;;;;4996826;28;20125;-69
2022/03/10 02:02:11;;;;;;;21.00;14.13;;;;;;;;;;4996964;28;20061;-68
2022/03/10 02:04:39;;;;;;;19.23;14.00;;;;;;;;;;4996635;28;20058;-68
2022/03/10 02:10:17;;;;;;;21.25;15.20;;;;;;;;;;4995838;28;20069;-68
2022/03/10 02:12:51;;;;;;;18.13;14.68;;;;;;;;;;4995625;28;20197;-69
2022/03/10 02:18:16;;;;;;;20.02;14.07;;;;;;;;;;4996579;28;20050;-69
2022/03/10 02:20:43;;;;;;;17.42;13.75;;;;;;;;;;4996001;28;20070;-69
2022/03/10 02:23:11;;;;;;;17.73;14.90;;;;;;;;;;4994856;28;20129;-69
2022/03/10 02:25:40;;;;;;;22.15;16.20;;;;;;;;;;4985577;28;20126;-69
2022/03/10 02:28:09;;;;;;;20.45;14.00;;;;;;;;;;4994891;28;20050;-68
2022/03/10 02:30:37;;;;;;;22.00;14.30;;;;;;;;;;4996663;28;20065;-68
2022/03/10 02:33:05;;;;;;;18.98;13.95;;;;;;;;;;4994618;28;20132;-68
2022/03/10 02:35:32;;;;;;;22.88;12.93;;;;;;;;;;4976986;28;20130;-68
2022/03/10 02:38:00;;;;;;;17.27;12.18;;;;;;;;;;4976794;28;20051;-68
2022/03/10 02:40:29;;;;;;;21.55;15.30;;;;;;;;;;4976424;28;20047;-68
2022/03/10 02:42:58;;;;;;;18.92;13.25;;;;;;;;;;4978457;28;20732;-68
2022/03/10 02:45:26;;;;;;;20.65;13.98;;;;;;;;;;5010660;28;20516;-68
2022/03/10 02:47:54;;;;;;;19.75;14.32;;;;;;;;;;5010716;28;20415;-68
2022/03/10 02:50:22;;;;;;;18.88;13.27;;;;;;;;;;4982838;28;20071;-68
2022/03/10 02:52:51;;;;;;;20.05;14.30;;;;;;;;;;4976478;28;20399;-68
2022/03/10 02:55:20;;;;;;;19.02;13.07;;;;;;;;;;4976271;28;20054;-68
2022/03/10 02:57:48;;;;;;;18.77;12.57;;;;;;;;;;4977102;28;20101;-68
2022/03/10 03:00:18;;;;;;;19.88;13.18;;;;;;;;;;4995285;28;20069;-68
2022/03/10 03:02:47;;;;;;;16.58;12.50;;;;;;;;;;4995339;28;20057;-68
2022/03/10 03:05:15;;;;;;;17.58;13.88;;;;;;;;;;4995504;28;20057;-68
2022/03/10 03:07:44;;;;;;;15.23;12.20;;;;;;;;;;4995727;28;20046;-68
2022/03/10 03:10:12;;;;;;;15.75;12.00;;;;;;;;;;4995273;28;20057;-68
2022/03/10 03:12:46;;;;;;;18.45;13.35;;;;;;;;;;4993932;28;20058;-69
2022/03/10 03:15:15;;;;;;;17.13;12.23;;;;;;;;;;4995464;28;20057;-68
2022/03/10 03:17:47;;;;;;;16.70;12.82;;;;;;;;;;4994831;28;20477;-68
2022/03/10 03:20:15;;;;;;;14.65;11.82;;;;;;;;;;4994986;28;20053;-68
2022/03/10 03:22:44;;;;;;;18.42;13.20;;;;;;;;;;4994984;28;20073;-69
2022/03/10 03:25:17;;;;;;;16.60;12.13;;;;;;;;;;4994560;28;20058;-68
2022/03/10 03:27:46;;;;;;;17.02;13.40;;;;;;;;;;4994801;28;20054;-68
2022/03/10 03:30:15;;;;;;;15.18;11.93;;;;;;;;;;4993774;28;20081;-69
2022/03/10 03:32:43;;;;;;;16.00;12.65;;;;;;;;;;4994446;28;20058;-68
2022/03/10 03:35:11;;;;;;;15.50;12.55;;;;;;;;;;4991323;28;20074;-69
2022/03/10 03:37:39;;;;;;;16.33;12.40;;;;;;;;;;4994780;28;20104;-68
2022/03/10 03:40:10;;;;;;;16.90;13.18;;;;;;;;;;4992962;28;20046;-68
2022/03/10 03:42:38;;;;;;;22.35;13.75;;;;;;;;;;4994670;28;20449;-68
2022/03/10 03:45:08;;;;;;;17.67;12.95;;;;;;;;;;4993629;28;20494;-69
2022/03/10 03:47:36;;;;;;;17.08;12.50;;;;;;;;;;4992824;28;20133;-69
2022/03/10 03:50:05;;;;;;;16.05;12.60;;;;;;;;;;4993218;28;20046;-69
2022/03/10 03:52:34;;;;;;;16.08;12.38;;;;;;;;;;4994553;28;20050;-69
2022/03/10 03:55:09;;;;;;;18.50;13.23;;;;;;;;;;4994732;28;20051;-69
2022/03/10 03:57:36;;;;;;;18.23;13.75;;;;;;;;;;4994754;28;20081;-68
2022/03/10 04:00:07;;;;;;;15.35;12.27;;;;;;;;;;4992773;28;20074;-69
2022/03/10 04:02:37;;;;;;;21.70;15.60;;;;;;;;;;4988372;28;20050;-69
2022/03/10 04:05:06;;;;;;;16.17;12.18;;;;;;;;;;4989886;28;20141;-69
2022/03/10 04:07:34;;;;;;;18.60;13.15;;;;;;;;;;4974799;28;20129;-69
2022/03/10 04:10:03;;;;;;;19.58;13.57;;;;;;;;;;4975007;28;20556;-69
2022/03/10 04:12:33;;;;;;;17.98;12.98;;;;;;;;;;4991764;28;20050;-69
2022/03/10 04:15:01;;;;;;;19.05;13.50;;;;;;;;;;4994122;28;20564;-69
2022/03/10 04:17:29;;;;;;;16.70;12.55;;;;;;;;;;4993054;28;20395;-68
2022/03/10 04:19:56;;;;;;;30.02;14.80;;;;;;;;;;4992949;28;20053;-69
2022/03/10 04:22:25;;;;;;;20.38;12.82;;;;;;;;;;4992819;28;20042;-69
2022/03/10 04:24:52;;;;;;;20.20;12.55;;;;;;;;;;4993835;28;20137;-68
2022/03/10 04:27:20;;;;;;;18.70;13.30;;;;;;;;;;4993115;28;20462;-68
2022/03/10 04:29:48;;;;;;;16.88;11.43;;;;;;;;;;4976991;28;20047;-68
2022/03/10 04:32:16;;;;;;;19.02;13.48;;;;;;;;;;4994546;28;20069;-68
2022/03/10 04:34:43;;;;;;;21.23;13.60;;;;;;;;;;4976932;28;20062;-68
2022/03/10 04:37:11;;;;;;;19.15;14.82;;;;;;;;;;4989231;28;20070;-69
2022/03/10 04:39:39;;;;;;;20.45;14.68;;;;;;;;;;4983638;28;20517;-68
2022/03/10 04:42:07;;;;;;;20.92;12.80;;;;;;;;;;4987482;28;20050;-69
2022/03/10 04:44:35;;;;;;;18.05;13.23;;;;;;;;;;4974833;28;20414;-68
2022/03/10 04:47:03;;;;;;;19.48;13.65;;;;;;;;;;4974834;28;20101;-68
2022/03/10 04:49:30;;;;;;;21.30;13.98;;;;;;;;;;4989722;28;20622;-69
2022/03/10 04:51:58;;;;;;;26.55;15.10;;;;;;;;;;4992456;28;20093;-69
2022/03/10 04:54:27;;;;;;;35.95;19.65;;;;;;;;;;4993819;28;20050;-68
2022/03/10 04:56:56;;;;;;;28.63;18.10;;;;;;;;;;4993403;28;20065;-68
2022/03/10 04:59:25;;;;;;;24.90;19.85;;;;;;;;;;4976666;28;20546;-68
2022/03/10 05:01:53;;;;;;;26.30;18.75;;;;;;;;;;4990936;28;20536;-69
2022/03/10 05:04:21;;;;;;;23.98;18.17;;;;;;;;;;4975496;28;20055;-69
2022/03/10 05:06:49;;;;;;;26.73;16.73;;;;;;;;;;4974954;28;20058;-68
2022/03/10 05:09:17;;;;;;;22.38;15.90;;;;;;;;;;4991818;28;20465;-68
2022/03/10 05:11:44;;;;;;;35.35;22.48;;;;;;;;;;4981446;28;20081;-68
2022/03/10 05:14:12;;;;;;;36.92;23.70;;;;;;;;;;4991987;28;20046;-69
2022/03/10 05:16:39;;;;;;;43.75;28.85;;;;;;;;;;5008760;28;20050;-69
2022/03/10 05:19:08;;;;;;;52.40;33.40;;;;;;;;;;5008539;28;20046;-69
2022/03/10 05:21:36;;;;;;;50.22;33.67;;;;;;;;;;4977735;28;20077;-69
2022/03/10 05:24:06;;;;;;;56.35;35.42;;;;;;;;;;4973187;28;20429;-69
2022/03/10 05:26:37;;;;;;;43.40;30.35;;;;;;;;;;4974830;28;20186;-69
2022/03/10 05:29:06;;;;;;;51.45;31.73;;;;;;;;;;4974370;28;20051;-69
2022/03/10 05:31:34;;;;;;;53.42;33.38;;;;;;;;;;4974345;28;20047;-69
2022/03/10 05:34:03;;;;;;;48.25;30.80;;;;;;;;;;4972642;28;20047;-68
2022/03/10 05:36:30;;;;;;;41.45;25.48;;;;;;;;;;4974392;28;20078;-69
2022/03/10 05:38:58;;;;;;;48.20;25.23;;;;;;;;;;4973903;28;20067;-69
2022/03/10 05:41:25;;;;;;;33.38;24.63;;;;;;;;;;4983776;28;20042;-69
2022/03/10 05:43:54;;;;;;;30.40;23.30;;;;;;;;;;4993338;28;20050;-69
2022/03/10 05:46:23;;;;;;;36.78;24.60;;;;;;;;;;4993199;28;20482;-69
2022/03/10 05:48:51;;;;;;;37.35;22.48;;;;;;;;;;4995553;28;20050;-69
2022/03/10 05:51:19;;;;;;;30.50;20.98;;;;;;;;;;4990963;28;20363;-68
2022/03/10 05:53:50;;;;;;;31.30;22.38;;;;;;;;;;4996570;28;20192;-69
2022/03/10 05:56:18;;;;;;;33.70;22.70;;;;;;;;;;4996495;28;20218;-69
2022/03/10 05:58:47;;;;;;;33.25;21.15;;;;;;;;;;4996808;28;20054;-69
2022/03/10 06:01:14;;;;;;;32.47;22.30;;;;;;;;;;4979608;28;20054;-69
2022/03/10 06:03:42;;;;;;;31.15;20.60;;;;;;;;;;4984460;28;20050;-69
2022/03/10 06:06:12;;;;;;;33.20;21.20;;;;;;;;;;4982214;28;20054;-70
2022/03/10 06:08:40;;;;;;;29.15;21.15;;;;;;;;;;4994021;28;20039;-69
2022/03/10 06:11:09;;;;;;;29.48;20.77;;;;;;;;;;4992048;28;20042;-69
2022/03/10 06:13:37;;;;;;;32.38;20.27;;;;;;;;;;4991142;28;20089;-69
2022/03/10 06:16:05;;;;;;;34.63;21.95;;;;;;;;;;4985801;28;20042;-70
2022/03/10 06:18:34;;;;;;;37.72;22.63;;;;;;;;;;4979734;28;20110;-69
2022/03/10 06:21:02;;;;;;;28.83;19.65;;;;;;;;;;4985729;28;20050;-69
2022/03/10 06:23:30;;;;;;;28.98;20.10;;;;;;;;;;4984590;28;20058;-69
2022/03/10 06:25:59;;;;;;;27.55;20.38;;;;;;;;;;4985313;28;20070;-72
2022/03/10 06:28:27;;;;;;;26.10;19.45;;;;;;;;;;4990709;28;20042;-75
2022/03/10 06:30:57;;;;;;;26.55;19.02;;;;;;;;;;4978148;28;20506;-71
2022/03/10 06:33:24;;;;;;;26.88;20.38;;;;;;;;;;4988018;28;20084;-70
2022/03/10 06:35:52;;;;;;;27.67;17.15;;;;;;;;;;4985904;28;20561;-70
2022/03/10 06:38:20;;;;;;;23.15;17.27;;;;;;;;;;4976665;28;20066;-71
2022/03/10 06:40:48;;;;;;;21.42;15.93;;;;;;;;;;4981592;28;20104;-70
2022/03/10 06:43:16;;;;;;;25.40;16.55;;;;;;;;;;4984914;28;20057;-71
2022/03/10 06:45:44;;;;;;;26.05;16.10;;;;;;;;;;4978674;28;20090;-71
2022/03/10 06:48:15;;;;;;;23.23;16.70;;;;;;;;;;4979829;28;20062;-70
2022/03/10 06:50:43;;;;;;;28.50;18.70;;;;;;;;;;4979695;28;20057;-70
2022/03/10 06:53:12;;;;;;;24.33;15.77;;;;;;;;;;4990188;28;20122;-70
2022/03/10 06:55:41;;;;;;;35.42;22.27;;;;;;;;;;4984076;28;20533;-71
2022/03/10 06:58:09;;;;;;;28.45;20.33;;;;;;;;;;4986024;28;20042;-69
2022/03/10 07:00:38;;;;;;;26.85;18.67;;;;;;;;;;4982369;28;20051;-69
2022/03/10 07:03:06;;;;;;;30.77;19.98;;;;;;;;;;4978222;28;20066;-69
2022/03/10 07:05:34;;;;;;;28.95;17.08;;;;;;;;;;4980112;28;20060;-70
2022/03/10 07:08:02;;;;;;;30.20;16.40;;;;;;;;;;4978972;28;20143;-70
2022/03/10 07:10:31;;;;;;;29.15;14.95;;;;;;;;;;4987610;28;20525;-69
2022/03/10 07:12:58;;;;;;;28.35;14.18;;;;;;;;;;4987826;28;20447;-70
2022/03/10 07:15:28;;;;;;;21.02;13.27;;;;;;;;;;5007308;28;20042;-71
2022/03/10 07:17:56;;;;;;;25.17;13.57;;;;;;;;;;4975832;28;20061;-68
2022/03/10 07:20:24;;;;;;;22.45;15.55;;;;;;;;;;4992206;28;20104;-68
2022/03/10 07:22:54;;;;;;;22.50;13.85;;;;;;;;;;4975526;28;20105;-68
2022/03/10 07:25:21;;;;;;;23.75;15.05;;;;;;;;;;4987647;28;20125;-69
2022/03/10 07:27:50;;;;;;;22.77;14.65;;;;;;;;;;4987122;28;20058;-68
2022/03/10 07:30:20;;;;;;;22.27;13.88;;;;;;;;;;4976932;28;20050;-68
2022/03/10 07:32:47;;;;;;;26.33;15.63;;;;;;;;;;4977536;28;20393;-68
2022/03/10 07:35:16;;;;;;;25.63;16.10;;;;;;;;;;4994060;28;20053;-69
2022/03/10 07:37:46;;;;;;;23.45;14.55;;;;;;;;;;4994599;28;20050;-69
2022/03/10 07:40:14;;;;;;;28.58;16.48;;;;;;;;;;4989513;28;20077;-69
2022/03/10 07:42:42;;;;;;;35.20;16.02;;;;;;;;;;4986557;28;20050;-69
2022/03/10 07:45:11;;;;;;;40.88;14.95;;;;;;;;;;4994169;28;20089;-69
2022/03/10 07:47:43;;;;;;;26.55;18.27;;;;;;;;;;4992180;28;20150;-68
2022/03/10 07:50:11;;;;;;;26.48;18.60;;;;;;;;;;4993809;28;20125;-68
2022/03/10 07:52:40;;;;;;;28.05;17.85;;;;;;;;;;4993632;28;20466;-67
2022/03/10 07:55:13;;;;;;;29.02;19.42;;;;;;;;;;4985883;28;20057;-67
2022/03/10 07:57:41;;;;;;;36.97;19.85;;;;;;;;;;4975052;28;20094;-67
2022/03/10 08:00:09;;;;;;;33.13;22.02;;;;;;;;;;4974931;28;20050;-67
2022/03/10 08:02:37;;;;;;;29.98;19.80;;;;;;;;;;4974292;28;20145;-67
2022/03/10 08:05:09;;;;;;;35.50;20.25;;;;;;;;;;4978516;28;20058;-67
2022/03/10 08:07:38;;;;;;;36.83;21.63;;;;;;;;;;4975009;28;20106;-67
2022/03/10 08:10:08;;;;;;;34.90;20.95;;;;;;;;;;4986595;28;20053;-68
2022/03/10 08:12:35;;;;;;;35.08;22.33;;;;;;;;;;4988688;28;20458;-70
2022/03/10 08:15:03;;;;;;;38.92;23.17;;;;;;;;;;4975177;28;20082;-68
2022/03/10 08:17:30;;;;;;;35.33;24.63;;;;;;;;;;4974827;28;20482;-68
2022/03/10 08:19:59;;;;;;;44.40;26.33;;;;;;;;;;4984456;28;20077;-67
2022/03/10 08:22:28;;;;;;;40.30;25.15;;;;;;;;;;4978135;28;20042;-68
2022/03/10 08:24:56;;;;;;;35.20;23.10;;;;;;;;;;4988642;28;20046;-67
2022/03/10 08:27:24;;;;;;;32.30;24.33;;;;;;;;;;4990361;28;20489;-68
2022/03/10 08:29:52;;;;;;;36.25;24.85;;;;;;;;;;4990946;28;20165;-67
2022/03/10 08:32:25;;;;;;;39.15;24.83;;;;;;;;;;4992902;28;20125;-68
2022/03/10 08:34:52;;;;;;;39.50;26.13;;;;;;;;;;4989394;28;20050;-68
2022/03/10 08:37:20;;;;;;;36.25;25.00;;;;;;;;;;4992998;28;20046;-68
2022/03/10 08:39:48;;;;;;;39.05;25.63;;;;;;;;;;4968468;28;20050;-68
2022/03/10 08:42:16;;;;;;;36.22;24.90;;;;;;;;;;4993390;28;20074;-68
2022/03/10 08:44:43;;;;;;;36.17;24.45;;;;;;;;;;4984406;28;20059;-68
2022/03/10 08:47:17;;;;;;;44.00;27.45;;;;;;;;;;4977803;28;20050;-68
2022/03/10 08:49:44;;;;;;;40.60;29.08;;;;;;;;;;4992161;28;20050;-68
2022/03/10 08:52:13;;;;;;;39.05;27.83;;;;;;;;;;4975989;28;20057;-68
2022/03/10 08:54:40;;;;;;;41.72;27.33;;;;;;;;;;4990418;28;20054;-68
2022/03/10 09:00:12;;;;;;;44.08;29.15;;;;;;;;;;4907515;29;20260;-71
2022/03/10 09:02:41;;;;;;;41.83;27.80;;;;;;;;;;4937975;29;20391;-71
2022/03/10 09:05:10;;;;;;;41.13;28.63;;;;;;;;;;4940369;29;20050;-72
2022/03/10 09:07:40;;;;;;;42.80;29.83;;;;;;;;;;4935720;29;20047;-72
2022/03/10 09:10:10;;;;;;;48.17;28.73;;;;;;;;;;4935463;29;20052;-71
2022/03/10 09:12:40;;;;;;;36.67;27.95;;;;;;;;;;4934992;29;20414;-72
2022/03/10 09:15:10;;;;;;;42.28;27.08;;;;;;;;;;4944515;28;20047;-72
2022/03/10 09:17:40;;;;;;;44.33;28.55;;;;;;;;;;4958645;28;20063;-72
2022/03/10 09:20:13;;;;;;;41.28;30.50;;;;;;;;;;4954724;28;20598;-72
2022/03/10 09:22:43;;;;;;;36.17;29.10;;;;;;;;;;4964125;28;20520;-71
2022/03/10 09:25:12;;;;;;;48.03;30.48;;;;;;;;;;4971110;28;20134;-71
2022/03/10 09:27:42;;;;;;;35.95;27.70;;;;;;;;;;4977480;28;20387;-72
2022/03/10 09:30:13;;;;;;;38.25;27.88;;;;;;;;;;4976931;28;20054;-73
2022/03/10 09:32:44;;;;;;;38.65;31.05;;;;;;;;;;4943079;28;20103;-72
2022/03/10 09:35:14;;;;;;;38.45;28.27;;;;;;;;;;4939854;29;20107;-72
2022/03/10 09:37:43;;;;;;;35.72;28.05;;;;;;;;;;4938373;29;20451;-76
2022/03/10 09:40:13;;;;;;;40.67;31.02;;;;;;;;;;4938830;29;20155;-76
2022/03/10 09:42:43;;;;;;;40.78;28.45;;;;;;;;;;4939893;29;20075;-76
2022/03/10 09:45:12;;;;;;;37.17;28.63;;;;;;;;;;4939753;29;20055;-77
2022/03/10 09:47:44;;;;;;;46.50;31.83;;;;;;;;;;4954092;29;20426;-77
2022/03/10 09:50:15;;;;;;;33.35;28.15;;;;;;;;;;4958189;28;20063;-76
2022/03/10 09:52:45;;;;;;;35.45;28.45;;;;;;;;;;4958765;28;20079;-76
2022/03/10 09:55:15;;;;;;;33.95;26.88;;;;;;;;;;4958743;28;20055;-77
2022/03/10 09:57:45;;;;;;;38.28;28.58;;;;;;;;;;4958831;28;20110;-77
2022/03/10 10:00:14;;;;;;;36.75;29.30;;;;;;;;;;4956686;29;20082;-77
2022/03/10 10:02:44;;;;;;;42.33;29.27;;;;;;;;;;4938089;29;20055;-77
2022/03/10 10:05:27;;;;;;;38.22;29.77;;;;;;;;;;4939630;29;20062;-77
2022/03/10 10:08:23;;;;;;;36.72;28.98;;;;;;;;;;4939927;29;20111;-76
2022/03/10 10:10:56;;;;;;;39.67;28.00;;;;;;;;;;4933795;29;20055;-77
2022/03/10 10:13:28;;;;;;;34.90;27.90;;;;;;;;;;4938192;29;20063;-76
2022/03/10 10:16:02;;;;;;;32.58;27.55;;;;;;;;;;4936876;29;20777;-77
2022/03/10 10:18:32;;;;;;;38.38;28.17;;;;;;;;;;4938345;29;20518;-77
2022/03/10 10:21:21;;;;;;;32.75;28.20;;;;;;;;;;4938749;29;20505;-77
2022/03/10 10:23:50;;;;;;;30.38;25.33;;;;;;;;;;4937993;29;20047;-77
2022/03/10 10:26:20;;;;;;;37.65;27.77;;;;;;;;;;4938275;29;20056;-77
2022/03/10 10:28:51;;;;;;;32.83;27.40;;;;;;;;;;4938008;29;20123;-77
2022/03/10 10:31:21;;;;;;;33.92;25.85;;;;;;;;;;4941344;29;20081;-77
2022/03/10 10:34:23;;;;;;;54.20;27.42;;;;;;;;;;4955012;28;20498;-77
2022/03/10 10:36:51;;;;;;;31.60;25.60;;;;;;;;;;4957277;29;20051;-77
2022/03/10 10:39:21;;;;;;;31.10;26.45;;;;;;;;;;4955274;28;20055;-76
2022/03/10 10:41:52;;;;;;;34.78;26.98;;;;;;;;;;4956451;28;20076;-76
2022/03/10 10:44:21;;;;;;;35.95;26.63;;;;;;;;;;4958403;29;20055;-77
2022/03/10 10:46:58;;;;;;;30.00;24.65;;;;;;;;;;4958220;28;20063;-76
2022/03/10 10:49:28;;;;;;;30.40;25.17;;;;;;;;;;4957780;28;20054;-76
2022/03/10 10:51:58;;;;;;;31.40;26.40;;;;;;;;;;4956982;28;20051;-76
2022/03/10 10:54:29;;;;;;;27.80;23.42;;;;;;;;;;4957537;28;20395;-76
2022/03/10 10:57:02;;;;;;;30.92;23.92;;;;;;;;;;4956448;28;20055;-76
2022/03/10 10:59:38;;;;;;;29.77;23.00;;;;;;;;;;4958509;28;20058;-76
2022/03/10 11:02:20;;;;;;;35.70;25.38;;;;;;;;;;4956876;28;20086;-76
2022/03/10 11:04:51;;;;;;;32.42;24.80;;;;;;;;;;4956712;29;20051;-75
2022/03/10 11:07:21;;;;;;;30.10;23.08;;;;;;;;;;4957266;28;20081;-76
2022/03/10 11:09:53;;;;;;;33.45;24.52;;;;;;;;;;4957011;29;20474;-76
2022/03/10 11:12:24;;;;;;;;;;;;;;;;;;4957300;28;20055;-76
2022/03/10 11:14:55;;;;;;;33.05;23.60;;;;;;;;;;4957253;28;19922;-76
2022/03/10 11:17:24;;;;;;;32.33;26.42;;;;;;;;;;4949185;29;20074;-76
2022/03/10 11:19:58;;;;;;;36.83;27.90;;;;;;;;;;4948792;28;20047;-76
2022/03/10 11:22:27;;;;;;;34.85;27.15;;;;;;;;;;4946017;29;20055;-76
2022/03/10 11:25:18;;;;;;;30.70;25.88;;;;;;;;;;4955353;29;20051;-76
2022/03/10 11:27:54;;;;;;;34.50;27.55;;;;;;;;;;4955965;29;20102;-76
2022/03/10 11:30:29;;;;;;;35.88;27.05;;;;;;;;;;4969490;28;20055;-76
2022/03/10 11:33:09;;;;;;;31.90;24.42;;;;;;;;;;4950912;29;20047;-76
2022/03/10 11:35:43;;;;;;;32.03;25.63;;;;;;;;;;4956896;28;20077;-76
2022/03/10 11:38:12;;;;;;;37.08;26.10;;;;;;;;;;4956295;28;20039;-76
2022/03/10 11:40:47;;;;;;;33.80;24.65;;;;;;;;;;4953206;29;20071;-76
2022/03/10 11:43:32;;;;;;;32.00;26.13;;;;;;;;;;4956528;28;20098;-76
2022/03/10 11:46:20;;;;;;;32.75;25.63;;;;;;;;;;4948935;28;20410;-76
2022/03/10 11:49:36;;;;;;;30.50;23.88;;;;;;;;;;4956615;28;20082;-76
2022/03/10 11:52:22;;;;;;;32.53;22.48;;;;;;;;;;4954708;29;20055;-76
2022/03/10 11:55:09;;;;;;;34.97;25.38;;;;;;;;;;4956302;28;20103;-76
2022/03/10 11:57:55;;;;;;;30.30;25.17;;;;;;;;;;4970470;28;20439;-76
2022/03/10 12:00:52;;;;;;;33.30;22.52;;;;;;;;;;4953488;28;20055;-76
2022/03/10 12:03:30;;;;;;;34.47;25.40;;;;;;;;;;4948800;29;20043;-84
2022/03/10 12:06:15;;;;;;;28.42;24.83;;;;;;;;;;4957034;28;20055;-84
2022/03/10 12:09:02;;;;;;;33.13;25.58;;;;;;;;;;4956400;28;20071;-83
2022/03/10 12:11:47;;;;;;;27.85;22.73;;;;;;;;;;4955080;29;20051;-85
2022/03/10 12:14:31;;;;;;;27.40;22.05;;;;;;;;;;4956751;28;20055;-86
2022/03/10 12:17:00;;;;;;;26.38;21.83;;;;;;;;;;4955783;28;20062;-87
2022/03/10 12:20:06;;;;;;;26.48;19.83;;;;;;;;;;4955778;28;20059;-85
2022/03/10 12:22:35;;;;;;;28.95;21.17;;;;;;;;;;4954278;29;20111;-88
2022/03/10 12:25:22;;;;;;;25.98;21.55;;;;;;;;;;4955368;28;20074;-78
2022/03/10 12:27:53;;;;;;;33.58;21.67;;;;;;;;;;4955023;29;20455;-79
2022/03/10 12:30:24;;;;;;;30.95;20.92;;;;;;;;;;4954030;28;20058;-77
2022/03/10 12:32:56;;;;;;;28.77;22.05;;;;;;;;;;4945436;29;20054;-76
2022/03/10 12:35:27;;;;;;;31.13;22.65;;;;;;;;;;4956073;29;20051;-78
2022/03/10 12:37:56;;;;;;;29.83;22.33;;;;;;;;;;4956539;28;20062;-78
2022/03/10 12:40:27;;;;;;;29.92;22.38;;;;;;;;;;4956289;29;20055;-76
2022/03/10 12:43:22;;;;;;;28.52;23.23;;;;;;;;;;4954797;29;20099;-76
2022/03/10 12:45:50;;;;;;;26.67;22.15;;;;;;;;;;4954062;29;20098;-78
2022/03/10 12:48:29;;;;;;;28.55;22.30;;;;;;;;;;4969026;28;20134;-83
2022/03/10 12:50:58;;;;;;;33.63;22.42;;;;;;;;;;4955728;28;20558;-83
2022/03/10 12:53:32;;;;;;;28.60;23.58;;;;;;;;;;4955286;28;20054;-83
2022/03/10 12:56:04;;;;;;;29.63;22.13;;;;;;;;;;4955114;28;20051;-83
2022/03/10 12:58:34;;;;;;;31.45;23.13;;;;;;;;;;4957734;28;20167;-83
2022/03/10 13:01:09;;;;;;;30.10;25.05;;;;;;;;;;4959330;28;20395;-89
2022/03/10 13:04:12;;;;;;;47.72;39.75;;;;;;;;;;4959614;28;20054;-89
2022/03/10 13:06:42;;;;;;;29.65;25.05;;;;;;;;;;4958083;29;20060;-88
2022/03/10 13:09:11;;;;;;;36.78;23.92;;;;;;;;;;4959732;28;20561;-89
2022/03/10 13:11:44;;;;;;;39.30;30.23;;;;;;;;;;4954553;29;20043;-89
2022/03/10 13:14:15;;;;;;;33.30;22.40;;;;;;;;;;4956228;29;20047;-89
2022/03/10 13:16:50;;;;;;;29.55;20.73;;;;;;;;;;4972008;28;20070;-88
2022/03/10 13:19:26;;;;;;;31.08;22.20;;;;;;;;;;4957963;28;20098;-88
2022/03/10 13:22:00;;;;;;;30.50;22.83;;;;;;;;;;4959249;28;20058;-89
2022/03/10 13:24:46;;;;;;;28.75;21.75;;;;;;;;;;4958472;29;20058;-89
2022/03/10 13:27:16;;;;;;;29.30;24.23;;;;;;;;;;4961085;29;20051;-88
2022/03/10 13:29:50;;;;;;;33.85;24.15;;;;;;;;;;4957760;29;20065;-90
2022/03/10 13:32:26;;;;;;;30.58;22.13;;;;;;;;;;4950110;28;20051;-89
2022/03/10 13:34:56;;;;;;;30.70;23.58;;;;;;;;;;4958576;29;20141;-89
2022/03/10 13:37:28;;;;;;;34.53;27.65;;;;;;;;;;4959849;28;20450;-88
2022/03/10 13:40:02;;;;;;;29.38;22.42;;;;;;;;;;4959316;29;20059;-86
2022/03/10 13:42:31;;;;;;;28.48;22.75;;;;;;;;;;4958313;28;20055;-93
2022/03/10 13:45:31;;;;;;;36.28;23.25;;;;;;;;;;4958392;28;20056;-89
2022/03/10 13:48:00;;;;;;;29.17;21.65;;;;;;;;;;4957908;29;20134;-86
2022/03/10 13:50:30;;;;;;;28.90;21.92;;;;;;;;;;4955448;28;20122;-78
2022/03/10 13:53:01;;;;;;;28.17;21.65;;;;;;;;;;4959104;28;20055;-86
2022/03/10 13:55:35;;;;;;;29.02;21.40;;;;;;;;;;4959213;28;20057;-87
2022/03/10 13:58:05;;;;;;;30.23;22.75;;;;;;;;;;4958757;28;20189;-88
2022/03/10 14:00:35;;;;;;;35.42;20.33;;;;;;;;;;4958119;28;20061;-88
2022/03/10 14:03:12;;;;;;;24.35;18.80;;;;;;;;;;4955631;29;20094;-75
2022/03/10 14:06:02;;;;;;;26.52;20.15;;;;;;;;;;4956756;28;20462;-79
2022/03/10 14:08:33;;;;;;;29.95;20.30;;;;;;;;;;4958201;28;20063;-78
2022/03/10 14:11:01;;;;;;;26.73;19.67;;;;;;;;;;4957362;29;20134;-79
2022/03/10 14:13:32;;;;;;;23.77;19.45;;;;;;;;;;4958177;28;20447;-80
2022/03/10 14:16:06;;;;;;;27.38;20.27;;;;;;;;;;4957552;29;20565;-81
2022/03/10 14:18:37;;;;;;;29.73;22.73;;;;;;;;;;4957026;29;20441;-81
2022/03/10 14:21:11;;;;;;;32.75;21.25;;;;;;;;;;4951262;28;20142;-80
2022/03/10 14:23:39;;;;;;;28.73;20.35;;;;;;;;;;4955905;29;20059;-78
2022/03/10 14:26:15;;;;;;;32.35;22.55;;;;;;;;;;4958125;28;20075;-79
2022/03/10 14:28:45;;;;;;;33.63;24.70;;;;;;;;;;4958706;28;20071;-82
2022/03/10 14:31:15;;;;;;;29.02;22.17;;;;;;;;;;4957503;29;20078;-88
2022/03/10 14:33:47;;;;;;;27.40;22.50;;;;;;;;;;4958507;28;20094;-89
2022/03/10 14:36:20;;;;;;;34.38;24.50;;;;;;;;;;4958251;28;20063;-88
2022/03/10 14:38:50;;;;;;;28.43;21.47;;;;;;;;;;4956745;29;20149;-87
2022/03/10 14:41:28;;;;;;;33.20;22.83;;;;;;;;;;4958189;28;20377;-87
2022/03/10 14:43:59;;;;;;;39.28;23.88;;;;;;;;;;4954853;29;20490;-86
2022/03/10 14:46:28;;;;;;;35.80;20.60;;;;;;;;;;4958131;28;20395;-87
2022/03/10 14:48:59;;;;;;;29.92;22.00;;;;;;;;;;4958520;28;20518;-88